Time;durP1;ratioP1;P1;durP2;ratioP2;P2;SDS_P1;SDS_P2;PMS_P1;PMS_P2;Temp;Humidity;BMP_temperature;BMP_pressure;BME280_temperature;BME280_humidity;BME280_pressure;Samples;Min_cycle;Max_cycle;Signal;HPM_P1;HPM_P2
2022/07/18 00:01:59;;;;;;;3.17;1.45;;;17.90;80.50;;;;;;5058766;28;20129;-70
2022/07/18 00:04:33;;;;;;;4.25;1.90;;;18.00;80.70;;;;;;5050664;28;20490;-69
2022/07/18 00:07:04;;;;;;;4.60;1.83;;;17.90;80.80;;;;;;5051277;28;20634;-69
2022/07/18 00:09:32;;;;;;;4.03;1.63;;;17.90;81.20;;;;;;5048642;28;20127;-68
2022/07/18 00:12:06;;;;;;;4.50;1.90;;;17.90;81.40;;;;;;5050133;28;20492;-67
2022/07/18 00:14:37;;;;;;;4.97;1.92;;;17.80;81.60;;;;;;5037126;28;20136;-71
2022/07/18 00:17:10;;;;;;;4.60;1.80;;;17.80;82.00;;;;;;5068033;28;20102;-69
2022/07/18 00:19:39;;;;;;;3.78;1.52;;;17.80;82.20;;;;;;5062680;28;20495;-70
2022/07/18 00:22:08;;;;;;;3.80;1.67;;;17.70;82.30;;;;;;5070431;28;20068;-70
2022/07/18 00:24:37;;;;;;;3.22;1.60;;;17.70;82.60;;;;;;5070090;28;20090;-70
2022/07/18 00:27:07;;;;;;;4.03;1.90;;;17.60;82.90;;;;;;5064146;28;20403;-70
2022/07/18 00:29:40;;;;;;;5.97;2.35;;;17.60;83.30;;;;;;5059168;28;20041;-70
2022/07/18 00:32:09;;;;;;;5.72;1.80;;;17.60;83.70;;;;;;5068042;28;20408;-69
2022/07/18 00:34:41;;;;;;;4.72;1.88;;;17.60;83.50;;;;;;5054261;28;20037;-70
2022/07/18 00:37:14;;;;;;;4.20;1.70;;;17.60;83.50;;;;;;5050227;28;20456;-69
2022/07/18 00:39:45;;;;;;;4.32;1.77;;;17.50;84.00;;;;;;5048645;28;20173;-71
2022/07/18 00:42:14;;;;;;;4.55;2.30;;;17.50;83.80;;;;;;5049482;28;20557;-68
2022/07/18 00:44:46;;;;;;;4.07;1.90;;;17.50;84.20;;;;;;5055898;28;20044;-69
2022/07/18 00:47:17;;;;;;;5.50;2.20;;;17.40;84.40;;;;;;5067571;28;20053;-69
2022/07/18 00:49:58;;;;;;;4.60;1.90;;;17.40;84.90;;;;;;5062798;28;20048;-69
2022/07/18 00:52:28;;;;;;;4.43;1.98;;;17.40;85.30;;;;;;5055786;28;20552;-69
2022/07/18 00:54:57;;;;;;;4.45;2.45;;;17.30;85.50;;;;;;5063001;28;20029;-68
2022/07/18 00:57:29;;;;;;;7.75;2.50;;;17.30;86.50;;;;;;5061344;28;20055;-70
2022/07/18 01:02:48;;;;;;;7.07;2.80;;;17.20;88.80;;;;;;5051311;28;20099;-69
2022/07/18 01:05:16;;;;;;;6.63;2.28;;;17.10;90.00;;;;;;5041684;28;20067;-68
2022/07/18 01:07:46;;;;;;;6.35;2.63;;;17.10;90.60;;;;;;5067355;28;20063;-68
2022/07/18 01:10:18;;;;;;;10.63;2.50;;;17.00;91.00;;;;;;5059451;28;20467;-69
2022/07/18 01:12:47;;;;;;;6.65;2.72;;;16.90;91.50;;;;;;5042894;28;20150;-69
2022/07/18 01:15:15;;;;;;;4.97;2.17;;;16.80;91.90;;;;;;5060489;28;20052;-70
2022/07/18 01:17:46;;;;;;;4.68;2.20;;;16.80;92.40;;;;;;5055162;28;20041;-70
2022/07/18 01:20:15;;;;;;;5.90;1.83;;;16.80;92.50;;;;;;5058695;28;20063;-69
2022/07/18 01:22:47;;;;;;;4.60;2.00;;;16.70;92.60;;;;;;5056270;28;20041;-68
2022/07/18 01:25:17;;;;;;;5.50;2.05;;;16.60;92.80;;;;;;5036847;28;20052;-69
2022/07/18 01:27:51;;;;;;;6.82;2.40;;;16.60;93.30;;;;;;5053168;28;20083;-71
2022/07/18 01:30:19;;;;;;;3.90;2.03;;;16.50;93.50;;;;;;5059689;28;20048;-69
2022/07/18 01:32:58;;;;;;;6.47;2.17;;;16.50;93.60;;;;;;5066708;28;20052;-67
2022/07/18 01:35:27;;;;;;;4.85;2.38;;;16.40;93.70;;;;;;5056303;28;20487;-69
2022/07/18 01:37:57;;;;;;;5.25;2.45;;;16.40;93.90;;;;;;5062594;28;20068;-68
2022/07/18 01:40:26;;;;;;;5.80;2.38;;;16.30;93.80;;;;;;5059976;28;20048;-68
2022/07/18 01:42:53;;;;;;;4.85;2.15;;;16.30;93.80;;;;;;5056720;28;20040;-69
2022/07/18 01:45:21;;;;;;;5.60;2.35;;;16.30;93.90;;;;;;5060746;28;20491;-67
2022/07/18 01:47:49;;;;;;;5.15;1.90;;;16.30;94.10;;;;;;5070219;28;20545;-68
2022/07/18 01:50:17;;;;;;;6.20;2.00;;;16.20;94.00;;;;;;5050706;28;20061;-68
2022/07/18 01:52:44;;;;;;;5.55;2.03;;;16.20;94.20;;;;;;5049425;28;20140;-68
2022/07/18 01:55:13;;;;;;;4.03;1.85;;;16.20;94.40;;;;;;5050372;28;20056;-69
2022/07/18 01:57:40;;;;;;;3.78;2.00;;;16.10;94.60;;;;;;5054723;28;20583;-68
2022/07/18 02:00:10;;;;;;;4.50;2.03;;;16.10;94.70;;;;;;5052765;28;20083;-68
2022/07/18 02:02:39;;;;;;;3.58;1.80;;;16.00;94.60;;;;;;5060980;28;20041;-68
2022/07/18 02:05:06;;;;;;;4.45;1.90;;;16.00;94.70;;;;;;5050157;28;20474;-68
2022/07/18 02:07:37;;;;;;;6.38;2.20;;;15.90;94.80;;;;;;5059431;28;20115;-68
2022/07/18 02:10:11;;;;;;;4.22;2.33;;;15.90;95.00;;;;;;5055962;28;20032;-69
2022/07/18 02:12:40;;;;;;;3.83;1.80;;;15.90;95.50;;;;;;5051415;28;20053;-69
2022/07/18 02:15:09;;;;;;;5.45;2.08;;;15.80;95.80;;;;;;5053570;28;20056;-69
2022/07/18 02:17:37;;;;;;;5.57;2.70;;;15.80;96.10;;;;;;5051739;28;20132;-68
2022/07/18 02:20:07;;;;;;;3.75;1.85;;;15.80;96.50;;;;;;5052443;28;20052;-68
2022/07/18 02:22:37;;;;;;;4.97;1.77;;;15.70;96.70;;;;;;5054444;28;20041;-69
2022/07/18 02:25:06;;;;;;;4.68;1.60;;;15.70;97.00;;;;;;5057410;28;20040;-69
2022/07/18 02:27:36;;;;;;;7.00;2.17;;;15.70;97.30;;;;;;5066555;28;20039;-68
2022/07/18 02:30:06;;;;;;;4.57;1.73;;;15.60;97.30;;;;;;5053076;28;20581;-68
2022/07/18 02:32:37;;;;;;;7.32;2.25;;;15.60;97.30;;;;;;5064128;28;20121;-70
2022/07/18 02:35:06;;;;;;;3.50;1.67;;;15.60;97.10;;;;;;5056651;28;20044;-68
2022/07/18 02:37:34;;;;;;;5.32;1.90;;;15.60;97.00;;;;;;5064418;28;20526;-69
2022/07/18 02:40:02;;;;;;;4.43;1.65;;;15.60;96.90;;;;;;5055925;28;20555;-67
2022/07/18 02:42:29;;;;;;;4.57;1.70;;;15.70;96.60;;;;;;5067695;28;20531;-67
2022/07/18 02:44:57;;;;;;;7.32;1.75;;;15.60;96.50;;;;;;5066358;28;20495;-69
2022/07/18 02:47:24;;;;;;;3.33;1.50;;;15.60;96.40;;;;;;5056133;28;20524;-70
2022/07/18 02:49:51;;;;;;;3.92;1.73;;;15.60;96.30;;;;;;5055903;28;20488;-68
2022/07/18 02:52:19;;;;;;;4.32;1.75;;;15.60;96.30;;;;;;5055265;28;20148;-68
2022/07/18 02:54:47;;;;;;;3.60;1.30;;;15.60;96.60;;;;;;5064749;28;20567;-69
2022/07/18 02:57:14;;;;;;;4.30;1.92;;;15.50;96.80;;;;;;5067846;28;20495;-69
2022/07/18 02:59:42;;;;;;;7.07;1.92;;;15.50;97.00;;;;;;5051927;28;20053;-68
2022/07/18 03:02:09;;;;;;;5.90;1.90;;;15.50;97.10;;;;;;5067277;28;20110;-69
2022/07/18 03:04:36;;;;;;;5.63;2.15;;;15.50;97.30;;;;;;5052154;28;20048;-68
2022/07/18 03:07:04;;;;;;;4.63;1.73;;;15.40;97.50;;;;;;5066608;28;20123;-68
2022/07/18 03:09:31;;;;;;;3.67;1.70;;;15.40;97.70;;;;;;5059897;28;20887;-68
2022/07/18 03:11:58;;;;;;;3.63;1.80;;;15.40;97.90;;;;;;5056817;28;20071;-68
2022/07/18 03:14:26;;;;;;;3.80;1.90;;;15.40;98.10;;;;;;5066310;28;20102;-68
2022/07/18 03:16:53;;;;;;;6.32;2.05;;;15.40;98.30;;;;;;5045176;28;20771;-68
2022/07/18 03:19:21;;;;;;;5.50;1.85;;;15.40;98.60;;;;;;5058894;28;20044;-68
2022/07/18 03:21:48;;;;;;;4.45;1.90;;;15.30;98.70;;;;;;5051579;28;20048;-68
2022/07/18 03:24:16;;;;;;;5.68;2.08;;;15.30;98.90;;;;;;5055810;28;20412;-68
2022/07/18 03:26:44;;;;;;;3.75;1.80;;;15.30;99.10;;;;;;5066923;28;20422;-68
2022/07/18 03:29:11;;;;;;;5.15;2.20;;;15.30;99.30;;;;;;5052841;28;20064;-68
2022/07/18 03:31:39;;;;;;;4.45;1.90;;;15.30;99.60;;;;;;5056046;28;20117;-68
2022/07/18 03:34:07;;;;;;;8.63;1.80;;;15.30;99.60;;;;;;5062001;28;20517;-68
2022/07/18 03:36:36;;;;;;;9.23;2.15;;;15.30;99.80;;;;;;5069944;28;20040;-69
2022/07/18 03:39:05;;;;;;;4.30;1.92;;;15.40;99.90;;;;;;5053873;28;20045;-68
2022/07/18 03:41:32;;;;;;;7.53;2.17;;;15.40;99.90;;;;;;5064232;28;20052;-69
2022/07/18 03:44:00;;;;;;;6.72;2.10;;;15.40;99.90;;;;;;5069338;28;20056;-68
2022/07/18 03:46:28;;;;;;;6.72;3.70;;;15.60;99.90;;;;;;5070371;28;20562;-68
2022/07/18 03:48:56;;;;;;;8.15;3.95;;;15.60;99.90;;;;;;5062042;28;20045;-68
2022/07/18 03:51:23;;;;;;;9.15;4.13;;;15.70;99.70;;;;;;5070334;28;20511;-68
2022/07/18 03:53:51;;;;;;;9.00;3.90;;;15.70;99.40;;;;;;5066942;28;21035;-68
2022/07/18 03:56:18;;;;;;;5.60;2.72;;;15.70;99.20;;;;;;5061359;28;20040;-72
2022/07/18 03:58:45;;;;;;;7.22;2.92;;;15.80;99.00;;;;;;5055166;28;20080;-68
2022/07/18 04:01:13;;;;;;;5.82;3.50;;;15.90;98.50;;;;;;5059380;28;20083;-68
2022/07/18 04:03:40;;;;;;;6.88;3.47;;;15.90;98.60;;;;;;5053023;28;20122;-69
2022/07/18 04:06:08;;;;;;;6.22;3.40;;;15.90;98.40;;;;;;5052774;28;20102;-68
2022/07/18 04:08:35;;;;;;;9.45;3.47;;;16.00;98.30;;;;;;5067823;28;20049;-69
2022/07/18 04:11:02;;;;;;;6.05;3.25;;;16.10;98.20;;;;;;5065989;28;20049;-69
2022/07/18 04:13:29;;;;;;;6.50;3.35;;;16.10;98.10;;;;;;5054949;28;20102;-69
2022/07/18 04:15:57;;;;;;;7.43;3.85;;;16.10;97.90;;;;;;5053846;28;20091;-68
2022/07/18 04:18:24;;;;;;;10.77;3.67;;;16.20;97.80;;;;;;5060115;28;20037;-68
2022/07/18 04:20:51;;;;;;;9.43;3.65;;;16.20;97.70;;;;;;5056456;28;20036;-68
2022/07/18 04:23:19;;;;;;;7.72;4.07;;;16.20;97.60;;;;;;5054688;28;20111;-68
2022/07/18 04:25:46;;;;;;;7.13;3.90;;;16.40;97.60;;;;;;5058776;28;20060;-68
2022/07/18 04:28:14;;;;;;;8.18;3.25;;;16.40;97.70;;;;;;5062636;28;20045;-68
2022/07/18 04:30:43;;;;;;;11.07;3.20;;;16.40;97.50;;;;;;5054418;28;20044;-69
2022/07/18 04:33:11;;;;;;;8.68;3.22;;;16.40;97.60;;;;;;5050063;28;20123;-69
2022/07/18 04:35:39;;;;;;;5.40;2.33;;;16.50;98.00;;;;;;5052938;28;20044;-69
2022/07/18 04:38:09;;;;;;;6.13;2.55;;;16.50;98.60;;;;;;5057982;28;20076;-66
2022/07/18 04:40:37;;;;;;;7.93;2.60;;;16.50;98.90;;;;;;5072499;28;20532;-68
2022/07/18 04:43:05;;;;;;;6.03;2.38;;;16.50;99.50;;;;;;5067653;28;20045;-68
2022/07/18 04:45:34;;;;;;;5.47;2.63;;;16.60;99.90;;;;;;5058193;28;20052;-70
2022/07/18 04:48:02;;;;;;;6.43;2.42;;;16.60;99.90;;;;;;5065629;28;20068;-68
2022/07/18 04:50:30;;;;;;;5.78;2.35;;;16.60;99.90;;;;;;5055082;28;20479;-69
2022/07/18 04:52:58;;;;;;;4.47;2.40;;;16.70;99.90;;;;;;5060807;28;20051;-71
2022/07/18 04:55:26;;;;;;;8.20;2.78;;;16.70;99.90;;;;;;5061316;28;20599;-67
2022/07/18 04:57:53;;;;;;;9.57;3.15;;;16.80;99.90;;;;;;5061374;28;20064;-68
2022/07/18 05:00:24;;;;;;;7.53;2.85;;;16.80;99.90;;;;;;5055467;28;20090;-69
2022/07/18 05:02:54;;;;;;;6.50;2.97;;;16.90;99.90;;;;;;5050394;28;20041;-69
2022/07/18 05:05:23;;;;;;;7.50;3.63;;;17.00;99.90;;;;;;5057729;28;20040;-69
2022/07/18 05:07:51;;;;;;;10.38;4.32;;;17.10;99.90;;;;;;5053773;28;20044;-70
2022/07/18 05:10:21;;;;;;;10.85;4.90;;;17.20;99.90;;;;;;5050908;28;20056;-69
2022/07/18 05:12:51;;;;;;;11.23;4.57;;;17.20;99.90;;;;;;5056473;28;20110;-69
2022/07/18 05:15:20;;;;;;;9.82;4.80;;;17.30;99.90;;;;;;5063019;28;20652;-67
2022/07/18 05:17:48;;;;;;;9.02;4.15;;;17.50;99.90;;;;;;5053797;28;20114;-69
2022/07/18 05:20:18;;;;;;;10.35;4.32;;;17.50;99.90;;;;;;5058616;28;20072;-69
2022/07/18 05:22:46;;;;;;;7.50;3.03;;;17.50;99.90;;;;;;5068643;28;20402;-68
2022/07/18 05:25:14;;;;;;;6.72;3.00;;;17.60;99.60;;;;;;5062847;28;20452;-69
2022/07/18 05:27:42;;;;;;;6.88;3.35;;;17.70;99.50;;;;;;5059543;28;20131;-70
2022/07/18 05:30:12;;;;;;;12.50;3.20;;;17.70;99.40;;;;;;5065618;28;20538;-69
2022/07/18 05:32:41;;;;;;;7.97;3.33;;;17.80;98.90;;;;;;5060745;28;20049;-69
2022/07/18 05:35:10;;;;;;;8.00;3.03;;;17.80;98.30;;;;;;5058932;28;20036;-70
2022/07/18 05:37:38;;;;;;;7.65;3.30;;;17.90;98.10;;;;;;5053644;28;20045;-69
2022/07/18 05:40:08;;;;;;;10.10;3.13;;;17.90;97.80;;;;;;5047742;28;20478;-69
2022/07/18 05:42:36;;;;;;;8.07;3.08;;;18.10;97.60;;;;;;5049801;28;20363;-69
2022/07/18 05:45:20;;;;;;;7.60;2.80;;;18.20;97.50;;;;;;5055473;28;20560;-69
2022/07/18 05:47:47;;;;;;;9.73;3.35;;;18.20;97.20;;;;;;5057337;28;20132;-69
2022/07/18 05:50:14;;;;;;;6.45;2.88;;;18.30;96.60;;;;;;5057741;28;20459;-69
2022/07/18 05:52:42;;;;;;;7.22;2.90;;;18.30;95.80;;;;;;5061194;28;20048;-68
2022/07/18 05:55:10;;;;;;;7.22;2.88;;;18.40;95.30;;;;;;5051448;28;20045;-69
2022/07/18 05:57:37;;;;;;;7.10;3.00;;;18.50;95.10;;;;;;5050023;28;20037;-69
2022/07/18 06:00:07;;;;;;;5.88;2.70;;;18.50;95.00;;;;;;5062848;28;20040;-68
2022/07/18 06:02:38;;;;;;;6.32;2.67;;;18.60;94.90;;;;;;5051863;28;20049;-69
2022/07/18 06:05:07;;;;;;;6.32;2.95;;;18.70;94.80;;;;;;5067817;28;20128;-69
2022/07/18 06:07:56;;;;;;;7.70;2.90;;;18.80;94.60;;;;;;5064752;28;20538;-71
2022/07/18 06:10:25;;;;;;;7.78;2.53;;;18.90;94.40;;;;;;5031300;28;20041;-69
2022/07/18 06:12:54;;;;;;;5.90;2.45;;;19.10;94.70;;;;;;5053178;28;20029;-72
2022/07/18 06:15:22;;;;;;;7.78;2.75;;;19.30;94.10;;;;;;5043770;28;20033;-71
2022/07/18 06:17:50;;;;;;;6.70;2.40;;;19.30;93.70;;;;;;5053648;28;20110;-71
2022/07/18 06:20:18;;;;;;;9.57;2.58;;;19.40;93.90;;;;;;5058259;28;20716;-71
2022/07/18 06:22:46;;;;;;;8.85;2.67;;;19.60;93.00;;;;;;5057248;28;20051;-68
2022/07/18 06:25:13;;;;;;;8.13;2.90;;;19.70;92.70;;;;;;5055229;28;20044;-68
2022/07/18 06:27:40;;;;;;;8.63;2.88;;;19.70;92.60;;;;;;5055672;28;20467;-68
2022/07/18 06:30:09;;;;;;;7.38;3.08;;;19.70;92.40;;;;;;5053107;28;20080;-67
2022/07/18 06:32:38;;;;;;;6.70;2.28;;;19.70;92.30;;;;;;5052882;28;20056;-68
2022/07/18 06:35:06;;;;;;;6.85;2.50;;;19.80;92.00;;;;;;5055481;28;20037;-67
2022/07/18 06:37:34;;;;;;;7.65;2.53;;;19.80;92.10;;;;;;5061957;28;20566;-69
2022/07/18 06:40:01;;;;;;;6.57;2.25;;;19.90;91.90;;;;;;5066448;28;20064;-68
2022/07/18 06:42:30;;;;;;;9.55;2.55;;;20.00;91.90;;;;;;5057807;28;20407;-66
2022/07/18 06:44:58;;;;;;;7.75;2.53;;;20.00;91.80;;;;;;5057557;28;20558;-67
2022/07/18 06:47:25;;;;;;;5.68;2.30;;;20.10;91.90;;;;;;5067876;28;20060;-67
2022/07/18 06:49:52;;;;;;;7.28;2.38;;;20.10;91.80;;;;;;5049364;28;20105;-66
2022/07/18 06:52:20;;;;;;;14.80;2.80;;;20.30;91.70;;;;;;5066369;28;20139;-67
2022/07/18 06:54:48;;;;;;;7.53;2.08;;;20.30;91.20;;;;;;5066941;28;20037;-67
2022/07/18 06:57:15;;;;;;;6.50;2.60;;;20.40;91.20;;;;;;5067305;28;20516;-67
2022/07/18 06:59:43;;;;;;;7.88;2.58;;;20.50;91.10;;;;;;5067345;28;20585;-68
2022/07/18 07:02:16;;;;;;;7.65;2.30;;;20.60;90.80;;;;;;5062141;28;20487;-67
2022/07/18 07:04:43;;;;;;;5.30;2.22;;;20.60;90.70;;;;;;5054474;28;20090;-67
2022/07/18 07:07:11;;;;;;;5.63;2.63;;;20.70;90.50;;;;;;5063550;28;20048;-67
2022/07/18 07:09:38;;;;;;;10.10;2.53;;;20.80;90.60;;;;;;5058996;28;20109;-69
2022/07/18 07:12:06;;;;;;;8.10;2.38;;;21.00;90.50;;;;;;5046205;28;20059;-66
2022/07/18 07:14:33;;;;;;;7.32;2.25;;;21.00;90.50;;;;;;5050018;28;20502;-68
2022/07/18 07:17:01;;;;;;;7.20;3.10;;;21.10;90.40;;;;;;5067377;28;20410;-66
2022/07/18 07:19:29;;;;;;;8.40;2.63;;;21.30;90.20;;;;;;5057965;28;20135;-67
2022/07/18 07:21:56;;;;;;;6.53;3.03;;;21.40;90.00;;;;;;5063463;28;20104;-68
2022/07/18 07:24:24;;;;;;;9.55;3.20;;;21.40;89.80;;;;;;5059127;28;20045;-69
2022/07/18 07:26:51;;;;;;;10.98;2.60;;;21.50;89.50;;;;;;5065360;28;20127;-66
2022/07/18 07:29:22;;;;;;;10.52;3.35;;;21.60;88.80;;;;;;5069325;28;20048;-70
2022/07/18 07:31:50;;;;;;;8.70;2.25;;;21.50;88.30;;;;;;5059561;28;20537;-68
2022/07/18 07:34:17;;;;;;;11.82;2.80;;;21.60;88.40;;;;;;5051675;28;20127;-68
2022/07/18 07:36:45;;;;;;;12.35;2.33;;;21.70;88.10;;;;;;5050078;28;20045;-67
2022/07/18 07:39:12;;;;;;;8.40;2.72;;;21.80;87.50;;;;;;5056584;28;20480;-66
2022/07/18 07:41:39;;;;;;;6.38;2.65;;;21.90;87.20;;;;;;5045065;28;20044;-69
2022/07/18 07:44:07;;;;;;;7.32;2.95;;;22.00;86.90;;;;;;5062649;28;20430;-67
2022/07/18 07:46:34;;;;;;;7.53;2.45;;;22.10;87.10;;;;;;5067547;28;20040;-68
2022/07/18 07:49:02;;;;;;;6.55;2.63;;;22.10;87.20;;;;;;5053358;28;20052;-66
2022/07/18 07:51:29;;;;;;;9.23;2.92;;;22.10;86.70;;;;;;5067781;28;20052;-67
2022/07/18 07:54:02;;;;;;;8.88;2.60;;;22.20;86.60;;;;;;5062559;28;20044;-67
2022/07/18 07:56:30;;;;;;;11.45;2.80;;;22.20;86.00;;;;;;5069160;28;20512;-67
2022/07/18 07:58:57;;;;;;;7.80;2.60;;;22.20;85.00;;;;;;5062169;28;20040;-66
2022/07/18 08:01:24;;;;;;;7.70;2.25;;;22.20;85.70;;;;;;5058827;28;20545;-66
2022/07/18 08:03:52;;;;;;;6.40;2.75;;;22.30;85.20;;;;;;5059541;28;20045;-66
2022/07/18 08:06:23;;;;;;;10.60;4.55;;;22.40;84.80;;;;;;5063022;28;20067;-67
2022/07/18 08:08:50;;;;;;;6.68;2.92;;;22.40;84.80;;;;;;5065110;28;20051;-68
2022/07/18 08:11:24;;;;;;;7.65;2.75;;;22.70;84.40;;;;;;5058289;28;20456;-67
2022/07/18 08:13:53;;;;;;;9.93;2.60;;;22.80;84.00;;;;;;5057789;28;20327;-67
2022/07/18 08:16:21;;;;;;;8.65;2.78;;;22.90;82.70;;;;;;5056627;28;20037;-68
2022/07/18 08:18:49;;;;;;;8.10;2.75;;;23.00;82.40;;;;;;5068990;28;20574;-69
2022/07/18 08:21:16;;;;;;;5.75;2.50;;;23.10;81.10;;;;;;5068435;28;20475;-68
2022/07/18 08:23:45;;;;;;;8.43;2.30;;;23.20;80.20;;;;;;5062472;28;20094;-69
2022/07/18 08:26:13;;;;;;;6.97;2.10;;;23.40;80.80;;;;;;5061091;28;20190;-68
2022/07/18 08:28:40;;;;;;;6.20;2.85;;;23.60;80.60;;;;;;5063408;28;20387;-68
2022/07/18 08:31:08;;;;;;;10.65;2.60;;;23.80;79.80;;;;;;5062780;28;20534;-67
2022/07/18 08:33:35;;;;;;;6.70;2.20;;;23.90;79.20;;;;;;5068778;28;20053;-68
2022/07/18 08:36:03;;;;;;;8.95;2.53;;;24.00;78.70;;;;;;5063976;28;20041;-67
2022/07/18 08:38:30;;;;;;;6.60;2.03;;;24.10;77.90;;;;;;5066471;28;20048;-67
2022/07/18 08:40:58;;;;;;;5.90;2.42;;;24.20;78.00;;;;;;5056629;28;20045;-68
2022/07/18 08:43:26;;;;;;;7.22;2.10;;;24.10;77.60;;;;;;5057321;28;20577;-68
2022/07/18 08:46:04;;;;;;;10.52;2.10;;;24.10;78.40;;;;;;5063263;28;20070;-69
2022/07/18 08:48:32;;;;;;;4.70;2.10;;;24.30;78.70;;;;;;5061808;28;20175;-67
2022/07/18 08:51:01;;;;;;;9.20;2.47;;;24.40;79.00;;;;;;5052123;28;20045;-67
2022/07/18 08:53:28;;;;;;;8.73;2.30;;;24.40;79.00;;;;;;5054957;28;20149;-68
2022/07/18 08:55:56;;;;;;;7.68;2.63;;;24.40;78.80;;;;;;5069910;28;20049;-68
2022/07/18 08:58:23;;;;;;;6.25;2.40;;;24.40;79.00;;;;;;5058424;28;20040;-66
2022/07/18 09:01:11;;;;;;;6.82;2.50;;;24.50;79.10;;;;;;5058900;28;20094;-67
2022/07/18 09:03:38;;;;;;;9.70;2.28;;;24.80;77.40;;;;;;5061535;28;20136;-68
2022/07/18 09:06:09;;;;;;;4.93;1.77;;;24.90;76.30;;;;;;5060360;28;20460;-67
2022/07/18 09:08:58;;;;;;;3.47;1.67;;;24.90;75.10;;;;;;5058662;28;20215;-67
2022/07/18 09:11:25;;;;;;;4.22;1.83;;;25.10;72.20;;;;;;5063308;28;20094;-68
2022/07/18 09:14:43;;;;;;;3.20;1.48;;;25.30;68.90;;;;;;5060790;28;20043;-67
2022/07/18 09:17:18;;;;;;;3.72;1.50;;;25.60;67.50;;;;;;5074028;28;20112;-67
2022/07/18 09:20:03;;;;;;;5.22;1.60;;;25.70;65.50;;;;;;5064450;28;20124;-69
2022/07/18 09:22:33;;;;;;;4.53;1.35;;;25.90;64.60;;;;;;5061397;28;20048;-67
2022/07/18 09:25:16;;;;;;;6.45;2.00;;;26.00;63.20;;;;;;5061843;28;20089;-67
2022/07/18 09:27:49;;;;;;;5.75;1.63;;;26.10;63.60;;;;;;5064666;28;20087;-67
2022/07/18 09:30:43;;;;;;;3.90;1.63;;;26.20;64.60;;;;;;5062649;28;20044;-67
2022/07/18 09:33:11;;;;;;;6.15;1.85;;;26.30;64.90;;;;;;5045437;28;20455;-67
2022/07/18 09:35:53;;;;;;;5.95;1.65;;;26.40;65.90;;;;;;5061961;28;20055;-66
2022/07/18 09:38:22;;;;;;;5.28;1.58;;;26.50;67.20;;;;;;5051791;28;20124;-67
2022/07/18 09:40:51;;;;;;;8.23;1.80;;;26.70;63.70;;;;;;5051149;28;20049;-66
2022/07/18 09:43:22;;;;;;;3.60;1.55;;;26.90;63.30;;;;;;5066507;28;20486;-67
2022/07/18 09:45:53;;;;;;;2.53;1.05;;;27.20;62.90;;;;;;5053118;28;20136;-67
2022/07/18 09:48:26;;;;;;;3.28;1.17;;;27.30;59.70;;;;;;5074979;28;20056;-67
2022/07/18 09:51:03;;;;;;;6.13;1.48;;;27.50;58.80;;;;;;5067620;28;20040;-67
2022/07/18 09:53:38;;;;;;;4.15;1.17;;;27.80;58.20;;;;;;5061510;28;20044;-67
2022/07/18 09:56:06;;;;;;;2.15;1.05;;;28.00;57.10;;;;;;5068392;28;20086;-70
2022/07/18 09:58:49;;;;;;;3.35;1.33;;;28.20;56.40;;;;;;5063241;28;20407;-66
2022/07/18 10:01:17;;;;;;;3.78;1.35;;;28.40;56.30;;;;;;5065897;28;20546;-67
2022/07/18 10:03:45;;;;;;;2.05;1.08;;;28.60;55.90;;;;;;5061126;28;20045;-68
2022/07/18 10:06:12;;;;;;;4.53;1.55;;;28.80;54.90;;;;;;5061573;28;20101;-67
2022/07/18 10:08:40;;;;;;;2.55;1.30;;;29.00;55.00;;;;;;5054740;28;20467;-67
2022/07/18 10:11:08;;;;;;;2.10;0.98;;;29.10;54.30;;;;;;5055096;28;20574;-67
2022/07/18 10:13:37;;;;;;;5.30;1.25;;;29.20;54.20;;;;;;5066212;28;20037;-68
2022/07/18 10:16:05;;;;;;;4.45;1.40;;;29.40;54.10;;;;;;5065651;28;20044;-68
2022/07/18 10:18:36;;;;;;;6.22;1.60;;;29.60;54.20;;;;;;5066717;28;20036;-68
2022/07/18 10:21:10;;;;;;;7.97;1.30;;;29.60;53.80;;;;;;5062160;28;20453;-69
2022/07/18 10:23:39;;;;;;;4.22;1.38;;;29.70;54.00;;;;;;5066644;28;20661;-67
2022/07/18 10:26:07;;;;;;;5.05;1.67;;;29.80;53.80;;;;;;5058616;28;20063;-68
2022/07/18 10:28:35;;;;;;;5.63;1.50;;;30.10;53.60;;;;;;5054613;28;20064;-67
2022/07/18 10:31:16;;;;;;;3.45;1.42;;;30.30;53.50;;;;;;5062800;28;20131;-67
2022/07/18 10:33:48;;;;;;;;;;;30.50;52.60;;;;;;5058219;28;20045;-67
2022/07/18 10:36:20;;;;;;;4.57;1.30;;;30.40;52.60;;;;;;5064295;28;20374;-67
2022/07/18 10:39:07;;;;;;;6.20;1.10;;;30.60;52.70;;;;;;5059797;28;20041;-66
2022/07/18 10:41:54;;;;;;;4.00;1.20;;;30.70;52.50;;;;;;5055051;28;20465;-66
2022/07/18 10:44:28;;;;;;;3.13;1.20;;;30.60;52.40;;;;;;5066810;28;20060;-66
2022/07/18 10:47:09;;;;;;;5.63;1.20;;;30.30;52.50;;;;;;5075055;28;20052;-67
2022/07/18 10:49:48;;;;;;;6.68;1.50;;;30.20;53.20;;;;;;5068840;28;20075;-67
2022/07/18 10:52:24;;;;;;;5.45;1.33;;;30.20;52.80;;;;;;5071101;28;20568;-68
2022/07/18 10:55:08;;;;;;;3.05;1.20;;;30.00;53.10;;;;;;5062331;28;20051;-67
2022/07/18 10:57:42;;;;;;;3.15;1.10;;;30.40;53.30;;;;;;5069177;28;20052;-67
2022/07/18 11:00:37;;;;;;;3.22;1.27;;;30.90;52.50;;;;;;5060412;28;20131;-66
2022/07/18 11:03:08;;;;;;;2.72;1.10;;;31.20;52.10;;;;;;5063360;28;20141;-66
2022/07/18 11:05:41;;;;;;;2.78;1.20;;;31.40;51.90;;;;;;5058271;28;20114;-66
2022/07/18 11:08:13;;;;;;;3.40;1.23;;;31.70;51.70;;;;;;5071386;28;20045;-66
2022/07/18 11:10:47;;;;;;;4.80;1.40;;;31.70;51.00;;;;;;5062568;28;20106;-67
2022/07/18 11:13:32;;;;;;;5.57;1.33;;;31.60;51.30;;;;;;5055939;28;20407;-67
2022/07/18 11:16:04;;;;;;;3.28;1.10;;;31.50;50.80;;;;;;5054829;28;20051;-68
2022/07/18 11:18:33;;;;;;;4.63;1.30;;;31.50;50.90;;;;;;5065250;28;20097;-66
2022/07/18 11:21:00;;;;;;;2.80;1.10;;;31.20;51.20;;;;;;5071388;28;20041;-67
2022/07/18 11:23:28;;;;;;;4.18;1.00;;;31.60;51.20;;;;;;5065547;28;20491;-66
2022/07/18 11:26:03;;;;;;;4.53;1.25;;;31.80;50.80;;;;;;5056541;28;20053;-67
2022/07/18 11:28:30;;;;;;;4.05;1.10;;;31.80;50.40;;;;;;5069360;28;20048;-68
2022/07/18 11:31:06;;;;;;;2.85;0.98;;;31.70;50.20;;;;;;5064682;28;20151;-67
2022/07/18 11:33:40;;;;;;;2.83;1.10;;;31.30;50.10;;;;;;5058623;28;20036;-66
2022/07/18 11:36:11;;;;;;;2.55;1.05;;;31.30;50.30;;;;;;5058141;28;20037;-67
2022/07/18 11:38:47;;;;;;;6.03;1.25;;;31.50;50.40;;;;;;5064422;28;20040;-67
2022/07/18 11:41:16;;;;;;;2.78;1.13;;;32.20;50.20;;;;;;5059137;28;20041;-66
2022/07/18 11:43:48;;;;;;;4.45;1.20;;;32.40;49.50;;;;;;5068990;28;20136;-67
2022/07/18 11:46:18;;;;;;;4.07;1.20;;;32.40;49.20;;;;;;5058385;28;20052;-67
2022/07/18 11:48:49;;;;;;;2.03;1.00;;;32.30;48.90;;;;;;5069778;28;20056;-67
2022/07/18 11:51:20;;;;;;;4.55;1.17;;;32.50;49.20;;;;;;5070335;28;21528;-67
2022/07/18 11:53:52;;;;;;;2.60;1.00;;;33.00;49.20;;;;;;5067825;28;20190;-67
2022/07/18 11:56:21;;;;;;;3.97;1.02;;;33.00;48.70;;;;;;5065518;28;20353;-67
2022/07/18 11:58:50;;;;;;;3.72;1.10;;;33.30;48.60;;;;;;5065627;28;20036;-67
2022/07/18 12:01:17;;;;;;;2.72;0.98;;;33.20;48.30;;;;;;5064803;28;20065;-67
2022/07/18 12:03:50;;;;;;;5.07;1.00;;;33.80;48.30;;;;;;5058595;28;20041;-67
2022/07/18 12:06:22;;;;;;;6.25;1.15;;;34.40;47.50;;;;;;5064865;28;20156;-67
2022/07/18 12:09:03;;;;;;;2.88;0.80;;;33.90;47.30;;;;;;5055709;28;20044;-67
2022/07/18 12:11:34;;;;;;;1.92;0.90;;;34.40;47.40;;;;;;5062985;28;20431;-67
2022/07/18 12:14:07;;;;;;;;;;;34.50;47.20;;;;;;5070355;28;20578;-67
2022/07/18 12:16:37;;;;;;;1.95;1.00;;;35.00;47.20;;;;;;5064852;28;20248;-67
2022/07/18 12:19:10;;;;;;;3.72;0.95;;;35.70;46.40;;;;;;5065948;28;20041;-67
2022/07/18 12:21:54;;;;;;;1.92;0.80;;;36.10;45.40;;;;;;5065528;28;20574;-67
2022/07/18 12:24:23;;;;;;;1.20;0.70;;;36.60;45.20;;;;;;5058239;28;20510;-67
2022/07/18 12:27:18;;;;;;;1.88;0.70;;;37.00;45.00;;;;;;5069159;28;20149;-67
2022/07/18 12:30:04;;;;;;;1.67;0.60;;;37.80;44.10;;;;;;5070359;28;20040;-69
2022/07/18 12:33:07;;;;;;;3.03;0.70;;;38.10;43.60;;;;;;5055987;28;20034;-68
2022/07/18 12:35:35;;;;;;;3.55;0.80;;;38.10;43.60;;;;;;5064505;28;20430;-68
2022/07/18 12:38:14;;;;;;;2.58;0.70;;;38.50;43.00;;;;;;5070240;28;20151;-67
2022/07/18 12:40:47;;;;;;;2.33;0.80;;;38.70;42.70;;;;;;5057150;28;20051;-68
2022/07/18 12:43:25;;;;;;;1.58;0.73;;;38.90;42.00;;;;;;5066261;28;20036;-67
2022/07/18 12:45:54;;;;;;;3.80;0.80;;;38.90;41.60;;;;;;5066778;28;20375;-67
2022/07/18 12:48:23;;;;;;;5.30;1.80;;;38.90;41.50;;;;;;5062864;28;20592;-66
2022/07/18 12:50:57;;;;;;;7.15;4.75;;;38.90;41.50;;;;;;5061400;28;20052;-67
2022/07/18 12:53:25;;;;;;;1.73;0.77;;;38.90;41.30;;;;;;5068633;28;20094;-67
2022/07/18 12:55:54;;;;;;;2.60;0.80;;;38.80;41.20;;;;;;5069788;28;20428;-68
2022/07/18 12:58:21;;;;;;;3.63;0.80;;;38.20;41.40;;;;;;5060104;28;20147;-67
2022/07/18 13:00:49;;;;;;;1.70;0.63;;;38.20;41.40;;;;;;5068158;28;20491;-67
2022/07/18 13:03:17;;;;;;;1.63;0.80;;;38.20;41.50;;;;;;5061129;28;20120;-67
2022/07/18 13:05:44;;;;;;;4.35;1.00;;;37.60;41.90;;;;;;5043034;28;20119;-68